sensor_id;sensor_type;location;lat;lon;timestamp;noise_LAeq;noise_LA_min;noise_LA_max;noise_LA01;noise_LA95
69670;Laerm;66535;52.370;4.832;2023-02-28T00:00:04;41.38;36.26;47.59;;
69670;Laerm;66535;52.370;4.832;2023-02-28T00:00:40;44.32;38.39;50.83;;
69670;Laerm;66535;52.370;4.832;2023-02-28T00:01:12;44.74;37.35;56.30;;
69670;Laerm;66535;52.370;4.832;2023-02-28T00:01:44;46.20;38.63;55.18;;
69670;Laerm;66535;52.370;4.832;2023-02-28T00:02:17;42.85;38.41;47.65;;
69670;Laerm;66535;52.370;4.832;2023-02-28T00:02:48;41.09;37.90;44.59;;
69670;Laerm;66535;52.370;4.832;2023-02-28T00:03:21;45.34;36.90;54.78;;
69670;Laerm;66535;52.370;4.832;2023-02-28T00:03:52;40.72;37.08;45.43;;
69670;Laerm;66535;52.370;4.832;2023-02-28T00:04:24;38.51;35.68;44.04;;
69670;Laerm;66535;52.370;4.832;2023-02-28T00:04:56;40.41;36.64;47.48;;
69670;Laerm;66535;52.370;4.832;2023-02-28T00:05:32;42.37;35.98;56.39;;
69670;Laerm;66535;52.370;4.832;2023-02-28T00:06:06;40.20;35.95;45.49;;
69670;Laerm;66535;52.370;4.832;2023-02-28T00:06:38;36.76;34.67;39.34;;
69670;Laerm;66535;52.370;4.832;2023-02-28T00:07:09;39.05;35.86;43.87;;
69670;Laerm;66535;52.370;4.832;2023-02-28T00:07:41;37.40;35.33;39.38;;
69670;Laerm;66535;52.370;4.832;2023-02-28T00:08:13;41.43;34.77;46.76;;
69670;Laerm;66535;52.370;4.832;2023-02-28T00:08:45;40.39;36.10;46.37;;
69670;Laerm;66535;52.370;4.832;2023-02-28T00:09:17;38.96;35.76;45.70;;
69670;Laerm;66535;52.370;4.832;2023-02-28T00:09:48;40.54;37.65;44.88;;
69670;Laerm;66535;52.370;4.832;2023-02-28T00:10:21;42.50;39.33;45.86;;
69670;Laerm;66535;52.370;4.832;2023-02-28T00:10:53;39.77;35.72;45.72;;
69670;Laerm;66535;52.370;4.832;2023-02-28T00:11:26;56.09;41.48;63.66;;
69670;Laerm;66535;52.370;4.832;2023-02-28T00:11:57;41.14;36.78;47.33;;
69670;Laerm;66535;52.370;4.832;2023-02-28T00:12:28;41.10;37.08;46.77;;
69670;Laerm;66535;52.370;4.832;2023-02-28T00:13:03;42.40;38.23;47.50;;
69670;Laerm;66535;52.370;4.832;2023-02-28T00:13:36;47.21;38.07;55.25;;
69670;Laerm;66535;52.370;4.832;2023-02-28T00:14:08;38.69;35.85;49.44;;
69670;Laerm;66535;52.370;4.832;2023-02-28T00:14:40;40.59;37.08;47.11;;
69670;Laerm;66535;52.370;4.832;2023-02-28T00:15:11;40.64;36.28;45.63;;
69670;Laerm;66535;52.370;4.832;2023-02-28T00:15:42;37.91;35.27;42.31;;
69670;Laerm;66535;52.370;4.832;2023-02-28T00:16:16;42.87;37.02;49.09;;
69670;Laerm;66535;52.370;4.832;2023-02-28T00:16:48;41.02;36.77;47.93;;
69670;Laerm;66535;52.370;4.832;2023-02-28T00:17:21;42.52;38.76;55.77;;
69670;Laerm;66535;52.370;4.832;2023-02-28T00:17:52;41.20;37.14;49.61;;
69670;Laerm;66535;52.370;4.832;2023-02-28T00:18:25;43.80;38.36;48.98;;
69670;Laerm;66535;52.370;4.832;2023-02-28T00:18:56;45.42;39.25;51.59;;
69670;Laerm;66535;52.370;4.832;2023-02-28T00:19:27;45.68;36.70;57.38;;
69670;Laerm;66535;52.370;4.832;2023-02-28T00:19:59;44.12;38.18;52.53;;
69670;Laerm;66535;52.370;4.832;2023-02-28T00:20:40;42.80;37.95;48.77;;
69670;Laerm;66535;52.370;4.832;2023-02-28T00:21:13;40.44;37.03;46.07;;
69670;Laerm;66535;52.370;4.832;2023-02-28T00:21:44;40.98;38.06;45.57;;
69670;Laerm;66535;52.370;4.832;2023-02-28T00:22:15;39.15;36.57;44.53;;
69670;Laerm;66535;52.370;4.832;2023-02-28T00:22:49;47.14;37.63;58.02;;
69670;Laerm;66535;52.370;4.832;2023-02-28T00:23:21;50.39;44.72;56.71;;
69670;Laerm;66535;52.370;4.832;2023-02-28T00:23:52;47.51;41.81;54.97;;
69670;Laerm;66535;52.370;4.832;2023-02-28T00:24:24;38.95;36.45;42.43;;
69670;Laerm;66535;52.370;4.832;2023-02-28T00:24:56;38.88;35.43;41.95;;
69670;Laerm;66535;52.370;4.832;2023-02-28T00:25:27;38.08;35.82;40.34;;
69670;Laerm;66535;52.370;4.832;2023-02-28T00:25:59;47.52;36.24;64.53;;
69670;Laerm;66535;52.370;4.832;2023-02-28T00:26:30;42.98;37.21;50.38;;
69670;Laerm;66535;52.370;4.832;2023-02-28T00:27:02;41.74;37.27;49.60;;
69670;Laerm;66535;52.370;4.832;2023-02-28T00:27:34;42.02;37.27;51.14;;
69670;Laerm;66535;52.370;4.832;2023-02-28T00:28:06;41.26;36.85;52.08;;
69670;Laerm;66535;52.370;4.832;2023-02-28T00:28:37;43.91;38.65;51.68;;
69670;Laerm;66535;52.370;4.832;2023-02-28T00:29:09;41.17;37.50;49.31;;
69670;Laerm;66535;52.370;4.832;2023-02-28T00:29:40;42.00;36.25;50.39;;
69670;Laerm;66535;52.370;4.832;2023-02-28T00:30:13;38.91;36.55;40.78;;
69670;Laerm;66535;52.370;4.832;2023-02-28T00:30:46;43.21;36.87;49.52;;
69670;Laerm;66535;52.370;4.832;2023-02-28T00:31:17;41.57;37.37;49.33;;
69670;Laerm;66535;52.370;4.832;2023-02-28T00:31:48;44.11;35.30;54.36;;
69670;Laerm;66535;52.370;4.832;2023-02-28T00:32:22;37.41;35.49;39.78;;
69670;Laerm;66535;52.370;4.832;2023-02-28T00:32:53;42.06;35.97;52.13;;
69670;Laerm;66535;52.370;4.832;2023-02-28T00:33:24;39.58;35.50;46.38;;
69670;Laerm;66535;52.370;4.832;2023-02-28T00:33:57;37.13;34.93;42.02;;
69670;Laerm;66535;52.370;4.832;2023-02-28T00:34:29;37.64;35.32;41.94;;
69670;Laerm;66535;52.370;4.832;2023-02-28T00:35:00;39.28;36.13;48.95;;
69670;Laerm;66535;52.370;4.832;2023-02-28T00:35:33;39.82;35.27;46.72;;
69670;Laerm;66535;52.370;4.832;2023-02-28T00:36:06;38.85;35.41;43.23;;
69670;Laerm;66535;52.370;4.832;2023-02-28T00:36:37;39.64;36.27;44.74;;
69670;Laerm;66535;52.370;4.832;2023-02-28T00:37:11;37.44;35.76;41.14;;
69670;Laerm;66535;52.370;4.832;2023-02-28T00:37:43;37.81;35.30;40.33;;
69670;Laerm;66535;52.370;4.832;2023-02-28T00:38:14;40.91;36.22;47.75;;
69670;Laerm;66535;52.370;4.832;2023-02-28T00:38:46;40.52;36.75;47.47;;
69670;Laerm;66535;52.370;4.832;2023-02-28T00:39:18;40.96;38.69;45.06;;
69670;Laerm;66535;52.370;4.832;2023-02-28T00:39:49;42.58;36.25;52.61;;
69670;Laerm;66535;52.370;4.832;2023-02-28T00:40:21;39.49;35.93;46.41;;
69670;Laerm;66535;52.370;4.832;2023-02-28T00:40:52;37.13;34.63;41.59;;
69670;Laerm;66535;52.370;4.832;2023-02-28T00:41:25;40.50;35.23;49.95;;
69670;Laerm;66535;52.370;4.832;2023-02-28T00:41:56;39.15;36.32;42.02;;
69670;Laerm;66535;52.370;4.832;2023-02-28T00:42:27;36.88;35.01;45.54;;
69670;Laerm;66535;52.370;4.832;2023-02-28T00:42:59;37.14;34.48;41.37;;
69670;Laerm;66535;52.370;4.832;2023-02-28T00:43:32;40.59;35.32;47.77;;
69670;Laerm;66535;52.370;4.832;2023-02-28T00:44:04;41.22;36.10;50.39;;
69670;Laerm;66535;52.370;4.832;2023-02-28T00:44:36;38.56;35.26;43.54;;
69670;Laerm;66535;52.370;4.832;2023-02-28T00:45:08;45.32;35.72;55.35;;
69670;Laerm;66535;52.370;4.832;2023-02-28T00:45:39;42.31;38.31;51.65;;
69670;Laerm;66535;52.370;4.832;2023-02-28T00:46:11;38.49;35.21;44.07;;
69670;Laerm;66535;52.370;4.832;2023-02-28T00:46:43;37.40;35.00;40.83;;
69670;Laerm;66535;52.370;4.832;2023-02-28T00:47:14;39.46;34.98;44.70;;
69670;Laerm;66535;52.370;4.832;2023-02-28T00:47:48;39.42;33.61;46.09;;
69670;Laerm;66535;52.370;4.832;2023-02-28T00:48:20;42.05;34.02;50.72;;
69670;Laerm;66535;52.370;4.832;2023-02-28T00:48:51;42.24;35.35;49.84;;
69670;Laerm;66535;52.370;4.832;2023-02-28T00:49:24;40.32;36.47;46.68;;
69670;Laerm;66535;52.370;4.832;2023-02-28T00:49:55;44.67;35.92;54.89;;
69670;Laerm;66535;52.370;4.832;2023-02-28T00:50:27;38.24;34.97;42.49;;
69670;Laerm;66535;52.370;4.832;2023-02-28T00:50:59;36.59;33.84;40.66;;
69670;Laerm;66535;52.370;4.832;2023-02-28T00:51:30;36.31;33.74;38.44;;
69670;Laerm;66535;52.370;4.832;2023-02-28T00:52:03;36.97;35.11;41.21;;
69670;Laerm;66535;52.370;4.832;2023-02-28T00:52:34;38.83;34.39;43.02;;
69670;Laerm;66535;52.370;4.832;2023-02-28T00:53:05;40.79;36.61;46.86;;
69670;Laerm;66535;52.370;4.832;2023-02-28T00:53:37;44.99;38.20;51.12;;
69670;Laerm;66535;52.370;4.832;2023-02-28T00:54:09;39.08;35.68;44.50;;
69670;Laerm;66535;52.370;4.832;2023-02-28T00:54:40;37.67;35.24;40.50;;
69670;Laerm;66535;52.370;4.832;2023-02-28T00:55:11;46.16;36.50;53.76;;
69670;Laerm;66535;52.370;4.832;2023-02-28T00:55:43;42.83;37.11;51.19;;
69670;Laerm;66535;52.370;4.832;2023-02-28T00:56:15;39.69;36.47;43.72;;
69670;Laerm;66535;52.370;4.832;2023-02-28T00:56:46;38.72;36.68;41.60;;
69670;Laerm;66535;52.370;4.832;2023-02-28T00:57:18;36.60;34.26;44.33;;
69670;Laerm;66535;52.370;4.832;2023-02-28T00:57:50;41.62;34.18;49.65;;
69670;Laerm;66535;52.370;4.832;2023-02-28T00:58:21;36.20;33.99;38.58;;
69670;Laerm;66535;52.370;4.832;2023-02-28T00:58:53;35.85;34.07;37.82;;
69670;Laerm;66535;52.370;4.832;2023-02-28T00:59:25;36.88;33.62;42.24;;
69670;Laerm;66535;52.370;4.832;2023-02-28T00:59:56;35.84;33.88;38.45;;
69670;Laerm;66535;52.370;4.832;2023-02-28T01:00:28;35.97;33.98;37.96;;
69670;Laerm;66535;52.370;4.832;2023-02-28T01:01:00;38.42;34.98;44.46;;
69670;Laerm;66535;52.370;4.832;2023-02-28T01:01:31;38.09;34.73;49.12;;
69670;Laerm;66535;52.370;4.832;2023-02-28T01:02:04;40.81;36.15;45.53;;
69670;Laerm;66535;52.370;4.832;2023-02-28T01:02:35;41.91;38.29;45.29;;
69670;Laerm;66535;52.370;4.832;2023-02-28T01:03:07;47.01;38.85;52.41;;
69670;Laerm;66535;52.370;4.832;2023-02-28T01:03:39;38.65;36.06;43.93;;
69670;Laerm;66535;52.370;4.832;2023-02-28T01:04:11;40.75;35.71;50.42;;
69670;Laerm;66535;52.370;4.832;2023-02-28T01:04:43;36.45;33.84;39.04;;
69670;Laerm;66535;52.370;4.832;2023-02-28T01:05:14;35.54;33.79;37.18;;
69670;Laerm;66535;52.370;4.832;2023-02-28T01:05:46;36.30;34.07;38.73;;
69670;Laerm;66535;52.370;4.832;2023-02-28T01:06:18;39.47;34.13;46.10;;
69670;Laerm;66535;52.370;4.832;2023-02-28T01:06:49;37.51;34.22;40.88;;
69670;Laerm;66535;52.370;4.832;2023-02-28T01:07:20;38.12;35.20;50.29;;
69670;Laerm;66535;52.370;4.832;2023-02-28T01:07:52;37.18;34.52;40.82;;
69670;Laerm;66535;52.370;4.832;2023-02-28T01:08:24;36.44;34.18;39.82;;
69670;Laerm;66535;52.370;4.832;2023-02-28T01:08:55;36.33;34.12;38.52;;
69670;Laerm;66535;52.370;4.832;2023-02-28T01:09:27;42.18;35.54;49.86;;
69670;Laerm;66535;52.370;4.832;2023-02-28T01:09:58;47.76;37.63;54.48;;
69670;Laerm;66535;52.370;4.832;2023-02-28T01:10:31;41.58;37.15;47.34;;
69670;Laerm;66535;52.370;4.832;2023-02-28T01:11:07;38.83;35.16;44.83;;
69670;Laerm;66535;52.370;4.832;2023-02-28T01:11:39;40.46;36.07;45.57;;
69670;Laerm;66535;52.370;4.832;2023-02-28T01:12:15;42.24;35.43;47.20;;
69670;Laerm;66535;52.370;4.832;2023-02-28T01:12:46;36.89;34.78;39.84;;
69670;Laerm;66535;52.370;4.832;2023-02-28T01:13:18;37.06;35.24;38.61;;
69670;Laerm;66535;52.370;4.832;2023-02-28T01:13:50;37.66;35.01;40.33;;
69670;Laerm;66535;52.370;4.832;2023-02-28T01:14:21;41.59;34.98;51.37;;
69670;Laerm;66535;52.370;4.832;2023-02-28T01:14:53;36.79;34.87;39.28;;
69670;Laerm;66535;52.370;4.832;2023-02-28T01:15:25;36.92;34.35;51.02;;
69670;Laerm;66535;52.370;4.832;2023-02-28T01:15:56;37.32;34.51;41.23;;
69670;Laerm;66535;52.370;4.832;2023-02-28T01:16:28;38.99;35.14;47.31;;
69670;Laerm;66535;52.370;4.832;2023-02-28T01:17:00;48.87;37.98;61.48;;
69670;Laerm;66535;52.370;4.832;2023-02-28T01:17:32;38.28;35.37;45.02;;
69670;Laerm;66535;52.370;4.832;2023-02-28T01:18:03;37.28;35.20;40.30;;
69670;Laerm;66535;52.370;4.832;2023-02-28T01:18:37;38.29;34.94;41.96;;
69670;Laerm;66535;52.370;4.832;2023-02-28T01:19:08;37.00;34.68;39.88;;
69670;Laerm;66535;52.370;4.832;2023-02-28T01:19:39;36.62;34.79;39.17;;
69670;Laerm;66535;52.370;4.832;2023-02-28T01:20:11;39.60;36.35;45.07;;
69670;Laerm;66535;52.370;4.832;2023-02-28T01:20:43;41.06;36.97;45.49;;
69670;Laerm;66535;52.370;4.832;2023-02-28T01:21:17;41.04;34.61;48.56;;
69670;Laerm;66535;52.370;4.832;2023-02-28T01:21:48;35.80;33.97;37.81;;
69670;Laerm;66535;52.370;4.832;2023-02-28T01:22:21;35.48;33.92;37.73;;
69670;Laerm;66535;52.370;4.832;2023-02-28T01:22:52;38.85;35.31;45.47;;
69670;Laerm;66535;52.370;4.832;2023-02-28T01:23:24;36.57;34.46;39.52;;
69670;Laerm;66535;52.370;4.832;2023-02-28T01:23:56;39.60;35.30;45.07;;
69670;Laerm;66535;52.370;4.832;2023-02-28T01:24:29;39.52;35.52;47.64;;
69670;Laerm;66535;52.370;4.832;2023-02-28T01:25:00;36.79;34.39;38.80;;
69670;Laerm;66535;52.370;4.832;2023-02-28T01:25:34;40.19;34.71;48.60;;
69670;Laerm;66535;52.370;4.832;2023-02-28T01:26:08;44.20;37.27;52.46;;
69670;Laerm;66535;52.370;4.832;2023-02-28T01:26:39;37.97;35.05;45.73;;
69670;Laerm;66535;52.370;4.832;2023-02-28T01:27:11;41.50;34.97;53.26;;
69670;Laerm;66535;52.370;4.832;2023-02-28T01:27:43;36.89;34.91;39.43;;
69670;Laerm;66535;52.370;4.832;2023-02-28T01:28:14;38.60;35.53;44.39;;
69670;Laerm;66535;52.370;4.832;2023-02-28T01:28:46;37.88;34.79;43.77;;
69670;Laerm;66535;52.370;4.832;2023-02-28T01:29:17;36.11;34.46;38.79;;
69670;Laerm;66535;52.370;4.832;2023-02-28T01:29:50;37.22;34.49;43.90;;
69670;Laerm;66535;52.370;4.832;2023-02-28T01:30:22;36.36;33.68;38.96;;
69670;Laerm;66535;52.370;4.832;2023-02-28T01:30:53;36.59;34.56;39.08;;
69670;Laerm;66535;52.370;4.832;2023-02-28T01:31:25;38.22;35.50;40.73;;
69670;Laerm;66535;52.370;4.832;2023-02-28T01:31:56;42.52;37.48;53.66;;
69670;Laerm;66535;52.370;4.832;2023-02-28T01:32:30;44.55;38.74;52.41;;
69670;Laerm;66535;52.370;4.832;2023-02-28T01:33:02;37.70;35.10;40.75;;
69670;Laerm;66535;52.370;4.832;2023-02-28T01:33:33;41.15;36.75;49.04;;
69670;Laerm;66535;52.370;4.832;2023-02-28T01:34:06;44.08;37.16;58.36;;
69670;Laerm;66535;52.370;4.832;2023-02-28T01:34:38;37.41;34.97;41.00;;
69670;Laerm;66535;52.370;4.832;2023-02-28T01:35:10;36.37;34.61;38.88;;
69670;Laerm;66535;52.370;4.832;2023-02-28T01:35:41;36.71;34.25;39.34;;
69670;Laerm;66535;52.370;4.832;2023-02-28T01:36:14;45.28;36.66;53.50;;
69670;Laerm;66535;52.370;4.832;2023-02-28T01:36:46;45.94;34.59;57.26;;
69670;Laerm;66535;52.370;4.832;2023-02-28T01:37:17;35.31;33.64;36.66;;
69670;Laerm;66535;52.370;4.832;2023-02-28T01:37:49;36.58;34.56;39.31;;
69670;Laerm;66535;52.370;4.832;2023-02-28T01:38:20;37.85;35.30;41.12;;
69670;Laerm;66535;52.370;4.832;2023-02-28T01:38:52;41.52;37.37;47.11;;
69670;Laerm;66535;52.370;4.832;2023-02-28T01:39:24;38.46;34.84;47.43;;
69670;Laerm;66535;52.370;4.832;2023-02-28T01:39:55;35.37;33.71;40.13;;
69670;Laerm;66535;52.370;4.832;2023-02-28T01:40:26;35.48;33.32;37.94;;
69670;Laerm;66535;52.370;4.832;2023-02-28T01:40:59;35.16;33.25;37.46;;
69670;Laerm;66535;52.370;4.832;2023-02-28T01:41:32;38.30;34.93;45.25;;
69670;Laerm;66535;52.370;4.832;2023-02-28T01:42:05;37.89;34.09;63.10;;
69670;Laerm;66535;52.370;4.832;2023-02-28T01:42:36;37.86;33.75;44.35;;
69670;Laerm;66535;52.370;4.832;2023-02-28T01:43:12;38.25;33.89;45.11;;
69670;Laerm;66535;52.370;4.832;2023-02-28T01:44:01;36.41;33.37;42.47;;
69670;Laerm;66535;52.370;4.832;2023-02-28T01:44:58;37.63;34.35;43.88;;
69670;Laerm;66535;52.370;4.832;2023-02-28T01:45:30;44.32;37.60;51.15;;
69670;Laerm;66535;52.370;4.832;2023-02-28T01:46:03;38.75;35.51;42.40;;
69670;Laerm;66535;52.370;4.832;2023-02-28T01:46:35;38.84;34.60;46.07;;
69670;Laerm;66535;52.370;4.832;2023-02-28T01:47:06;39.99;35.66;45.71;;
69670;Laerm;66535;52.370;4.832;2023-02-28T01:47:40;38.70;35.85;44.66;;
69670;Laerm;66535;52.370;4.832;2023-02-28T01:48:12;37.88;35.22;41.87;;
69670;Laerm;66535;52.370;4.832;2023-02-28T01:48:45;38.44;34.82;42.57;;
69670;Laerm;66535;52.370;4.832;2023-02-28T01:49:20;35.86;33.67;38.23;;
69670;Laerm;66535;52.370;4.832;2023-02-28T01:49:51;38.29;33.90;44.49;;
69670;Laerm;66535;52.370;4.832;2023-02-28T01:50:25;38.86;34.52;45.10;;
69670;Laerm;66535;52.370;4.832;2023-02-28T01:51:01;37.93;35.01;42.26;;
69670;Laerm;66535;52.370;4.832;2023-02-28T01:51:37;37.97;33.96;44.01;;
69670;Laerm;66535;52.370;4.832;2023-02-28T01:52:10;35.07;33.01;39.62;;
69670;Laerm;66535;52.370;4.832;2023-02-28T01:52:49;36.41;33.99;41.33;;
69670;Laerm;66535;52.370;4.832;2023-02-28T01:53:23;38.27;34.38;44.89;;
69670;Laerm;66535;52.370;4.832;2023-02-28T01:53:57;44.13;36.23;52.86;;
69670;Laerm;66535;52.370;4.832;2023-02-28T01:54:32;45.03;37.20;53.67;;
69670;Laerm;66535;52.370;4.832;2023-02-28T01:55:05;35.74;33.60;39.41;;
69670;Laerm;66535;52.370;4.832;2023-02-28T01:55:37;42.43;33.52;50.14;;
69670;Laerm;66535;52.370;4.832;2023-02-28T01:56:11;40.65;33.19;50.12;;
69670;Laerm;66535;52.370;4.832;2023-02-28T01:56:52;36.18;33.92;39.64;;
69670;Laerm;66535;52.370;4.832;2023-02-28T01:57:27;40.32;34.55;47.34;;
69670;Laerm;66535;52.370;4.832;2023-02-28T01:58:02;35.50;32.45;40.89;;
69670;Laerm;66535;52.370;4.832;2023-02-28T01:58:35;35.45;33.39;41.05;;
69670;Laerm;66535;52.370;4.832;2023-02-28T01:59:07;38.55;34.11;45.12;;
69670;Laerm;66535;52.370;4.832;2023-02-28T01:59:41;36.22;33.99;38.42;;
69670;Laerm;66535;52.370;4.832;2023-02-28T02:00:18;37.43;33.58;43.99;;
69670;Laerm;66535;52.370;4.832;2023-02-28T02:00:51;40.05;35.42;45.56;;
69670;Laerm;66535;52.370;4.832;2023-02-28T02:01:25;36.58;33.34;47.16;;
69670;Laerm;66535;52.370;4.832;2023-02-28T02:01:56;35.19;33.12;40.15;;
69670;Laerm;66535;52.370;4.832;2023-02-28T02:02:28;38.68;34.36;44.82;;
69670;Laerm;66535;52.370;4.832;2023-02-28T02:03:04;35.43;33.36;39.13;;
69670;Laerm;66535;52.370;4.832;2023-02-28T02:03:36;35.89;33.50;39.43;;
69670;Laerm;66535;52.370;4.832;2023-02-28T02:04:07;38.35;34.73;42.20;;
69670;Laerm;66535;52.370;4.832;2023-02-28T02:04:43;36.00;33.49;44.83;;
69670;Laerm;66535;52.370;4.832;2023-02-28T02:05:19;39.04;33.90;46.01;;
69670;Laerm;66535;52.370;4.832;2023-02-28T02:05:51;37.32;34.30;40.47;;
69670;Laerm;66535;52.370;4.832;2023-02-28T02:06:24;38.41;34.76;46.62;;
69670;Laerm;66535;52.370;4.832;2023-02-28T02:06:56;38.89;35.26;45.93;;
69670;Laerm;66535;52.370;4.832;2023-02-28T02:07:30;35.92;33.51;38.61;;
69670;Laerm;66535;52.370;4.832;2023-02-28T02:08:05;39.07;34.55;45.48;;
69670;Laerm;66535;52.370;4.832;2023-02-28T02:08:37;37.47;34.45;43.86;;
69670;Laerm;66535;52.370;4.832;2023-02-28T02:09:09;36.29;34.65;38.54;;
69670;Laerm;66535;52.370;4.832;2023-02-28T02:09:41;47.20;37.26;54.31;;
69670;Laerm;66535;52.370;4.832;2023-02-28T02:10:14;37.86;35.44;40.36;;
69670;Laerm;66535;52.370;4.832;2023-02-28T02:10:47;39.96;35.20;46.83;;
69670;Laerm;66535;52.370;4.832;2023-02-28T02:11:23;40.08;35.57;47.37;;
69670;Laerm;66535;52.370;4.832;2023-02-28T02:11:56;38.06;35.41;41.55;;
69670;Laerm;66535;52.370;4.832;2023-02-28T02:12:34;39.23;35.19;45.17;;
69670;Laerm;66535;52.370;4.832;2023-02-28T02:13:14;39.09;34.77;43.05;;
69670;Laerm;66535;52.370;4.832;2023-02-28T02:14:59;37.80;34.62;43.20;;
69670;Laerm;66535;52.370;4.832;2023-02-28T02:15:34;35.23;33.17;37.12;;
69670;Laerm;66535;52.370;4.832;2023-02-28T02:16:13;34.84;32.90;37.18;;
69670;Laerm;66535;52.370;4.832;2023-02-28T02:17:03;36.43;33.49;40.85;;
69670;Laerm;66535;52.370;4.832;2023-02-28T02:17:38;35.64;33.05;37.66;;
69670;Laerm;66535;52.370;4.832;2023-02-28T02:18:16;38.40;34.53;45.04;;
69670;Laerm;66535;52.370;4.832;2023-02-28T02:18:52;37.14;35.02;41.74;;
69670;Laerm;66535;52.370;4.832;2023-02-28T02:19:51;35.10;33.13;37.45;;
69670;Laerm;66535;52.370;4.832;2023-02-28T02:25:11;35.02;33.11;38.00;;
69670;Laerm;66535;52.370;4.832;2023-02-28T02:25:48;34.79;32.96;36.98;;
69670;Laerm;66535;52.370;4.832;2023-02-28T02:26:47;39.95;32.73;55.01;;
69670;Laerm;66535;52.370;4.832;2023-02-28T02:27:27;40.47;33.74;55.40;;
69670;Laerm;66535;52.370;4.832;2023-02-28T02:29:21;35.62;33.56;38.05;;
69670;Laerm;66535;52.370;4.832;2023-02-28T02:30:21;35.82;33.65;43.92;;
69670;Laerm;66535;52.370;4.832;2023-02-28T02:31:12;40.62;35.07;47.01;;
69670;Laerm;66535;52.370;4.832;2023-02-28T02:31:56;39.05;33.93;46.00;;
69670;Laerm;66535;52.370;4.832;2023-02-28T02:33:06;35.05;32.90;37.25;;
69670;Laerm;66535;52.370;4.832;2023-02-28T02:35:00;35.71;31.95;41.29;;
69670;Laerm;66535;52.370;4.832;2023-02-28T02:35:40;35.97;33.68;39.00;;
69670;Laerm;66535;52.370;4.832;2023-02-28T02:36:14;40.18;33.67;47.99;;
69670;Laerm;66535;52.370;4.832;2023-02-28T02:36:51;34.90;32.65;38.40;;
69670;Laerm;66535;52.370;4.832;2023-02-28T02:37:29;33.94;31.92;35.77;;
69670;Laerm;66535;52.370;4.832;2023-02-28T02:38:06;34.58;32.63;37.18;;
69670;Laerm;66535;52.370;4.832;2023-02-28T02:38:43;34.56;32.73;36.73;;
69670;Laerm;66535;52.370;4.832;2023-02-28T02:39:19;34.32;32.42;36.45;;
69670;Laerm;66535;52.370;4.832;2023-02-28T02:39:55;36.88;33.51;40.91;;
69670;Laerm;66535;52.370;4.832;2023-02-28T02:40:32;34.25;32.25;36.90;;
69670;Laerm;66535;52.370;4.832;2023-02-28T02:41:08;36.32;32.99;44.30;;
69670;Laerm;66535;52.370;4.832;2023-02-28T02:41:45;39.36;33.96;46.09;;
69670;Laerm;66535;52.370;4.832;2023-02-28T02:42:21;41.36;34.99;48.86;;
69670;Laerm;66535;52.370;4.832;2023-02-28T02:42:57;36.83;32.34;43.77;;
69670;Laerm;66535;52.370;4.832;2023-02-28T02:43:33;34.36;32.60;36.31;;
69670;Laerm;66535;52.370;4.832;2023-02-28T02:44:07;38.96;33.10;47.19;;
69670;Laerm;66535;52.370;4.832;2023-02-28T02:44:45;36.19;33.66;40.35;;
69670;Laerm;66535;52.370;4.832;2023-02-28T02:45:22;35.72;33.23;40.10;;
69670;Laerm;66535;52.370;4.832;2023-02-28T02:45:56;35.37;32.72;38.50;;
69670;Laerm;66535;52.370;4.832;2023-02-28T02:46:32;36.13;33.48;39.86;;
69670;Laerm;66535;52.370;4.832;2023-02-28T02:47:07;43.69;35.56;53.76;;
69670;Laerm;66535;52.370;4.832;2023-02-28T02:47:39;35.92;33.46;40.43;;
69670;Laerm;66535;52.370;4.832;2023-02-28T02:48:13;34.68;32.25;36.88;;
69670;Laerm;66535;52.370;4.832;2023-02-28T02:48:46;34.38;32.39;36.20;;
69670;Laerm;66535;52.370;4.832;2023-02-28T02:49:21;34.58;32.56;37.48;;
69670;Laerm;66535;52.370;4.832;2023-02-28T02:49:57;39.23;33.57;47.69;;
69670;Laerm;66535;52.370;4.832;2023-02-28T02:50:33;37.83;34.52;42.83;;
69670;Laerm;66535;52.370;4.832;2023-02-28T02:51:09;40.52;34.46;47.60;;
69670;Laerm;66535;52.370;4.832;2023-02-28T02:51:43;38.03;33.94;43.71;;
69670;Laerm;66535;52.370;4.832;2023-02-28T02:52:18;36.23;33.77;39.75;;
69670;Laerm;66535;52.370;4.832;2023-02-28T02:52:54;36.61;34.12;38.82;;
69670;Laerm;66535;52.370;4.832;2023-02-28T02:53:28;39.96;35.33;45.93;;
69670;Laerm;66535;52.370;4.832;2023-02-28T02:54:03;37.47;35.02;42.43;;
69670;Laerm;66535;52.370;4.832;2023-02-28T02:54:37;42.11;35.23;50.37;;
69670;Laerm;66535;52.370;4.832;2023-02-28T02:55:11;45.75;35.01;53.47;;
69670;Laerm;66535;52.370;4.832;2023-02-28T02:55:44;36.86;33.56;40.08;;
69670;Laerm;66535;52.370;4.832;2023-02-28T02:56:18;34.83;32.21;37.40;;
69670;Laerm;66535;52.370;4.832;2023-02-28T02:56:51;34.60;32.28;36.74;;
69670;Laerm;66535;52.370;4.832;2023-02-28T02:57:24;36.99;33.38;43.51;;
69670;Laerm;66535;52.370;4.832;2023-02-28T02:57:58;36.08;33.96;40.11;;
69670;Laerm;66535;52.370;4.832;2023-02-28T02:58:33;34.40;32.40;44.81;;
69670;Laerm;66535;52.370;4.832;2023-02-28T02:59:06;34.50;32.07;37.79;;
69670;Laerm;66535;52.370;4.832;2023-02-28T02:59:42;35.20;32.97;37.26;;
69670;Laerm;66535;52.370;4.832;2023-02-28T03:00:14;35.01;33.31;36.55;;
69670;Laerm;66535;52.370;4.832;2023-02-28T03:00:48;35.66;33.70;38.16;;
69670;Laerm;66535;52.370;4.832;2023-02-28T03:01:23;36.62;34.37;41.02;;
69670;Laerm;66535;52.370;4.832;2023-02-28T03:02:01;36.87;33.67;41.84;;
69670;Laerm;66535;52.370;4.832;2023-02-28T03:02:36;38.15;34.42;44.00;;
69670;Laerm;66535;52.370;4.832;2023-02-28T03:03:09;39.82;34.26;46.65;;
69670;Laerm;66535;52.370;4.832;2023-02-28T03:03:41;36.08;34.24;38.81;;
69670;Laerm;66535;52.370;4.832;2023-02-28T03:04:16;38.19;34.61;44.84;;
69670;Laerm;66535;52.370;4.832;2023-02-28T03:04:51;35.44;33.40;38.58;;
69670;Laerm;66535;52.370;4.832;2023-02-28T03:05:25;34.93;32.41;36.59;;
69670;Laerm;66535;52.370;4.832;2023-02-28T03:06:00;35.46;33.06;37.92;;
69670;Laerm;66535;52.370;4.832;2023-02-28T03:06:32;38.58;33.42;46.22;;
69670;Laerm;66535;52.370;4.832;2023-02-28T03:07:04;36.36;34.11;39.12;;
69670;Laerm;66535;52.370;4.832;2023-02-28T03:07:35;37.01;34.19;42.00;;
69670;Laerm;66535;52.370;4.832;2023-02-28T03:08:06;36.47;33.80;39.08;;
69670;Laerm;66535;52.370;4.832;2023-02-28T03:08:38;35.46;33.94;37.38;;
69670;Laerm;66535;52.370;4.832;2023-02-28T03:09:10;38.67;34.35;44.87;;
69670;Laerm;66535;52.370;4.832;2023-02-28T03:09:50;38.33;34.45;44.06;;
69670;Laerm;66535;52.370;4.832;2023-02-28T03:10:30;37.47;33.79;44.09;;
69670;Laerm;66535;52.370;4.832;2023-02-28T03:11:05;35.28;33.08;37.19;;
69670;Laerm;66535;52.370;4.832;2023-02-28T03:11:40;36.30;34.61;38.07;;
69670;Laerm;66535;52.370;4.832;2023-02-28T03:12:12;40.01;34.72;44.12;;
69670;Laerm;66535;52.370;4.832;2023-02-28T03:12:48;38.29;34.96;46.57;;
69670;Laerm;66535;52.370;4.832;2023-02-28T03:13:42;37.95;33.72;42.65;;
69670;Laerm;66535;52.370;4.832;2023-02-28T03:14:31;37.06;34.07;45.30;;
69670;Laerm;66535;52.370;4.832;2023-02-28T03:15:11;36.22;33.91;39.93;;
69670;Laerm;66535;52.370;4.832;2023-02-28T03:16:01;35.86;33.99;39.98;;
69670;Laerm;66535;52.370;4.832;2023-02-28T03:16:59;35.28;32.37;41.32;;
69670;Laerm;66535;52.370;4.832;2023-02-28T03:17:56;35.38;33.46;40.61;;
69670;Laerm;66535;52.370;4.832;2023-02-28T03:18:32;35.81;33.45;40.21;;